EW6193 Weather Reports


Display with metric or nautical units.
time (UTC)temp
F
wind
direction
speed
MPH
gust
MPH
rain 1hr
in
rain 24hr
in
rain mn
in
humidity
%
barometer
mb
20221002220059 52 32 4.0 8.0 0.00 0.02 0.00 82 999.8
20221002214552 51 49 4.0 8.0 0.00 0.02 0.00 81 999.7
20221002213101 51 38 4.0 7.0 0.00 0.02 0.00 84 999.5
20221002211548 50 57 3.0 6.0 0.00 0.02 0.00 87 999.5
20221002210039 49 39 2.0 5.0 0.00 0.02 0.00 91 999.5
20221002204534 48 57 1.0 3.0 0.00 0.02 0.00 92 999.4
20221002203037 47 82 1.0 2.0 0.00 0.02 0.00 93 999.4
20221002201529 47 75 0.0 1.0 0.00 0.02 0.00 93 999.1
20221002200050 47 261 0.0 0.0 0.00 0.02 0.00 94 999.0
20221002194516 46 260 0.0 0.0 0.00 0.02 0.00 94 998.9
20221002193021 45 260 0.0 0.0 0.00 0.02 0.00 95 998.9
20221002191508 44 261 0.0 0.0 0.00 0.02 0.00 94 998.9
20221002190004 43 261 0.0 0.0 0.00 0.02 0.00 94 998.9
20221002184604 42 260 0.0 0.0 0.00 0.02 0.00 94 998.8
20221002183057 0 0.0 0.0 0.00 0.02 0.00 998.8
20221002181603 0 0.0 0.0 0.00 0.02 0.00 998.9
20221002180051 0 0.0 0.0 0.00 0.02 0.00 998.8
20221002174546 0 0.0 0.0 0.00 0.02 0.00 999.0
20221002173042 0 0.0 0.0 0.00 0.02 0.00 999.0
20221002171541 0 0.0 0.0 0.00 0.02 0.00 999.1
20221002170034 0 0.0 0.0 0.00 0.02 0.00 999.1
20221002164528 -90 268 0.0 0.0 0.00 0.02 0.00 92 999.3
20221002163031 42 264 0.0 0.0 0.00 0.02 0.00 93 999.5
20221002161526 43 264 0.0 0.0 0.00 0.02 0.00 92 999.5
20221002160019 44 264 0.0 0.0 0.00 0.02 0.00 93 999.6
20221002154517 44 264 0.0 0.0 0.00 0.05 0.00 93 999.8
20221002153016 44 264 0.0 0.0 0.00 0.05 0.00 92 999.8
20221002151516 45 264 0.0 0.0 0.00 0.05 0.00 92 1000.1
20221002150008 45 264 0.0 1.0 0.00 0.05 0.00 92 1000.3
20221002144506 46 264 0.0 1.0 0.00 0.06 0.00 92 1000.5
20221002143003 46 264 0.0 0.0 0.00 0.06 0.00 92 1000.8
20221002141604 46 264 0.0 0.0 0.00 0.06 0.00 92 1001.2
20221002140108 46 264 0.0 0.0 0.00 0.06 0.00 91 1001.4
20221002134556 46 264 0.0 1.0 0.00 0.08 0.00 91 1001.7
20221002133053 46 259 0.0 1.0 0.00 0.08 0.00 91 1002.1
20221002131551 46 259 0.0 0.0 0.00 0.08 0.00 91 1002.2
20221002130048 46 259 0.0 0.0 0.00 0.08 0.00 91 1002.4
20221002124545 46 259 0.0 0.0 0.00 0.10 0.00 90 1002.8
20221002123043 46 259 0.0 1.0 0.00 0.10 0.00 90 1003.0
20221002121545 46 259 0.0 0.0 0.00 0.10 0.00 90 1003.2
20221002120036 46 259 0.0 0.0 0.00 0.10 0.00 89 1003.5
20221002114533 46 259 0.0 0.0 0.00 0.11 0.10 89 1003.7
20221002113031 46 259 0.0 0.0 0.00 0.11 0.10 88 1003.8
20221002111532 46 259 0.0 0.0 0.00 0.11 0.10 88 1004.0
20221002110030 46 259 0.0 0.0 0.00 0.11 0.10 87 1004.1
20221002104543 46 259 0.0 0.0 0.00 0.16 0.10 87 1004.2
20221002103025 46 258 0.0 0.0 0.00 0.16 0.10 87 1004.5
20221002101523 46 259 0.0 0.0 0.00 0.16 0.10 87 1004.6
20221002100052 46 259 0.0 0.0 0.00 0.16 0.10 87 1004.6
20221002064540 47 338 1.0 4.0 0.00 0.17 0.10 84 1006.0
20221002063036 47 324 1.0 5.0 0.00 0.17 0.10 83 1006.2
20221002061535 47 331 1.0 4.0 0.00 0.17 0.10 84 1006.3
20221002060035 48 338 2.0 5.0 0.00 0.17 0.10 85 1006.4
20221002054533 48 327 0.0 2.0 0.00 0.17 0.10 86 1006.5
20221002053031 47 323 0.0 2.0 0.01 0.17 0.10 88 1006.5
20221002051531 47 322 0.0 2.0 0.01 0.17 0.10 89 1006.6
20221002050030 47 6 2.0 4.0 0.01 0.17 0.10 90 1006.6
20221002044530 47 349 1.0 4.0 0.01 0.17 0.10 91 1006.7
20221002043029 47 338 1.0 4.0 0.01 0.17 0.09 91 1006.7
20221002041526 47 344 2.0 5.0 0.01 0.17 0.09 90 1006.9
20221002040036 47 323 2.0 6.0 0.01 0.17 0.09 90 1007.0
20221002034527 48 320 2.0 6.0 0.01 0.17 0.09 89 1007.1
20221002033122 49 321 2.0 6.0 0.00 0.16 0.09 88 1007.1
20221002031521 49 324 2.0 5.0 0.00 0.16 0.09 87 1007.2
20221002030020 50 343 2.0 5.0 0.00 0.16 0.09 86 1007.3
20221002024521 50 23 2.0 4.0 0.00 0.16 0.09 86 1007.4
20221002023024 50 4 2.0 5.0 0.00 0.16 0.09 86 1007.6
20221002021514 50 36 2.0 5.0 0.00 0.16 0.09 84 1007.8
20221002020013 52 84 1.0 4.0 0.00 0.16 0.09 80 1008.0
20221002011509 53 98 1.0 6.0 0.00 0.16 0.09 77 1008.5
20221002010006 52 25 2.0 5.0 0.00 0.16 0.09 76 1008.7
20221002004503 52 37 2.0 6.0 0.00 0.16 0.09 77 1009.0
20221002003100 52 79 2.0 6.0 0.00 0.16 0.09 78 1009.1
20221002001558 51 55 3.0 8.0 0.00 0.16 0.09 77 1009.2
20221002000057 51 39 4.0 7.0 0.00 0.16 0.09 79 1009.4
20221001234552 50 67 4.0 8.0 0.00 0.16 0.09 80 1009.6
20221001233049 49 75 3.0 7.0 0.00 0.16 0.09 82 1009.8
20221001231555 49 75 4.0 8.0 0.00 0.16 0.09 82 1010.1
20221001230044 49 63 5.0 8.0 0.00 0.16 0.09 82 1010.4
20221001223042 49 71 3.0 7.0 0.00 0.16 0.09 82 1010.6
20221001221539 49 20 3.0 7.0 0.00 0.16 0.09 82 1010.8